Flight Track Log - Related Links

Times and Time Zones

All times are in EDT time to prevent confusion due to time zone crossing. See the N374SK flight status page for this flight to view local times or setup timezone preferences in your user account.


Time Position Orientation Groundspeed Altitude Reporting Facility
EDT Latitude Longitude Course Direction KTS MPH feet Rate Location/Type
Fri 06:31:32 PM 43.8736 -92.3414 306° West  Level FlightAware Approximate
Fri 06:32:32 PM 43.8667 -92.2343 292° West  Level FlightAware Approximate
Fri 06:33:32 PM 43.8418 -92.1341 291° West  Level FlightAware Approximate
Fri 06:33:43 PM 43.9311 -92.4533 108° East 268 308 9,400  Level Minneapolis Center
Fri 06:37:44 PM 43.8133 -91.9608 108° East 360 414 16,900 1,914 Climbing Minneapolis Center
Fri 06:38:44 PM 43.7800 -91.8208 108° East 372 428 19,000 2,168 Climbing Minneapolis Center
Fri 06:39:43 PM 43.7467 -91.6781 110° East 377 434 21,200 1,966 Climbing Minneapolis Center
Fri 06:40:43 PM 43.7133 -91.5500 108° East 390 449 22,900 831 Climbing Minneapolis Center
Fri 06:41:53 PM 43.6689 -91.3586 108° East 396 456 23,000 46 Climbing Chicago Center
Fri 06:42:53 PM 43.6319 -91.2053 109° East 409 471 23,000  Level Chicago Center
Fri 06:43:53 PM 43.5944 -91.0581 109° East 409 471 23,000  Level Chicago Center
Fri 06:44:53 PM 43.5569 -90.9108 109° East 409 471 23,000  Level Chicago Center
Fri 06:45:53 PM 43.5214 -90.7669 109° East 409 471 23,000  Level Chicago Center
Fri 06:46:53 PM 43.4814 -90.6086 110° East 415 478 23,000  Level Chicago Center
Fri 06:47:53 PM 43.4414 -90.4592 109° East 420 483 23,000  Level Chicago Center
Fri 06:48:53 PM 43.4011 -90.2983 111° Southeast 431 496 23,000  Level Chicago Center
Fri 06:49:53 PM 43.3606 -90.1522 109° East 442 509 23,000  Level Chicago Center
Fri 06:50:53 PM 43.3197 -89.9919 111° Southeast 447 514 23,000 -350 Level Chicago Center
Fri 06:51:53 PM 43.2769 -89.8375 110° East 447 514 22,300 -1,200 Descending Chicago Center
Fri 06:52:53 PM 43.2336 -89.6775 110° East 447 514 20,600 -1,750 Descending Chicago Center
Fri 06:53:53 PM 43.1944 -89.5292 111° Southeast 431 496 18,800 -1,750 Descending Chicago Center
Fri 06:54:53 PM 43.1550 -89.3867 136° Southeast 410 472 17,100 -1,650 Descending Chicago Center
Fri 06:55:53 PM 43.0800 -89.2872 140° Southeast 367 422 15,500 -1,350 Descending Chicago Center
Fri 06:56:53 PM 43.0006 -89.1967 141° Southeast 372 428 14,400 -1,050 Descending Chicago Center
Fri 06:57:53 PM 42.9233 -89.1117 141° Southeast 367 422 13,400 -700 Descending Chicago Center
Fri 06:58:53 PM 42.8503 -89.0297 140° Southeast 361 415 13,000 -200 Descending Chicago Center
Fri 06:59:53 PM 42.7728 -88.9425 140° Southeast 350 403 13,000  Level Chicago Center
Fri 07:00:53 PM 42.6953 -88.8556 140° Southeast 355 409 13,000  Level Chicago Center
Fri 07:01:53 PM 42.6117 -88.7603 141° Southeast 370 426 13,000  Level Chicago Center
Fri 07:02:53 PM 42.5319 -88.6736 141° Southeast 375 432 13,000 -350 Level Chicago Center
Fri 07:03:53 PM 42.4542 -88.5872 139° Southeast 370 426 12,300 -1,150 Descending Chicago Center
Fri 07:04:53 PM 42.3806 -88.5011 135° Southeast 365 420 10,700 -1,350 Descending Chicago Center
Fri 07:05:53 PM 42.3217 -88.4203 162° South 333 383 9,600 -1,250 Descending Chicago Center
Fri 07:06:53 PM 42.2547 -88.3906 175° South 244 281 8,200 -1,200 Descending Chicago Center
Fri 07:07:53 PM 42.1900 -88.3831 174° South 244 281 7,200 -800 Descending Chicago Center
Fri 07:08:53 PM 42.1336 -88.3756 176° South 230 265 6,600 -800 Descending Chicago Center
Fri 07:09:53 PM 42.0817 -88.3708 183° South 205 236 5,600 -800 Descending Chicago Center
Fri 07:10:53 PM 42.0294 -88.3742 172° South 193 222 5,000 -300 Descending Chicago Center
Fri 07:11:53 PM 41.9772 -88.3639 94° East 193 222 5,000 -176 Level Chicago Center
Fri 07:14:17 PM 41.9667 -88.1833 94° East 187 215 4,400 -250 Descending Chicago TRACON

Login

Don't have an account? Register now (free) for customized features, flight alerts, and more!